createdAt,value
2023-01-09T00:00:00.360Z,1.1
2023-01-09T00:01:00.353Z,1.1
2023-01-09T00:02:00.366Z,1.1
2023-01-09T00:03:00.352Z,1.1
2023-01-09T00:04:00.400Z,1.1
2023-01-09T00:05:00.383Z,1.1
2023-01-09T00:06:00.353Z,1.1
2023-01-09T00:07:00.361Z,1.1
2023-01-09T00:08:00.359Z,1.1
2023-01-09T00:09:00.376Z,1.1
2023-01-09T00:10:00.353Z,1.1
2023-01-09T00:11:00.357Z,1.1
2023-01-09T00:12:00.372Z,1.1
2023-01-09T00:13:00.357Z,1.1
2023-01-09T00:14:00.376Z,1.1
2023-01-09T00:15:00.374Z,1.1
2023-01-09T00:16:00.354Z,1.1
2023-01-09T00:17:00.416Z,1.1
2023-01-09T00:18:00.366Z,1.1
2023-01-09T00:19:00.407Z,1.1
2023-01-09T00:20:00.386Z,1.1
2023-01-09T00:21:00.382Z,1.1
2023-01-09T00:22:00.414Z,1.1
2023-01-09T00:23:00.374Z,1.1
2023-01-09T00:24:00.364Z,1.1
2023-01-09T00:25:00.371Z,1.1
2023-01-09T00:26:00.385Z,1.1
2023-01-09T00:27:00.387Z,1.1
2023-01-09T00:28:00.399Z,1.1
2023-01-09T00:29:00.378Z,1.1
2023-01-09T00:30:00.367Z,1.1
2023-01-09T00:31:00.527Z,1.1
2023-01-09T00:32:00.515Z,1.1
2023-01-09T00:33:00.385Z,1.1
2023-01-09T00:34:00.398Z,1.1
2023-01-09T00:35:00.379Z,1.1
2023-01-09T00:36:00.417Z,1.1
2023-01-09T00:37:00.400Z,1.1
2023-01-09T00:38:00.387Z,1.1
2023-01-09T00:39:00.416Z,1.1
2023-01-09T00:40:00.386Z,1.1
2023-01-09T00:41:00.394Z,1.1
2023-01-09T00:42:00.399Z,1.1
2023-01-09T00:43:00.385Z,1.1
2023-01-09T00:44:00.385Z,1.1
2023-01-09T00:45:00.411Z,1.1
2023-01-09T00:46:01.387Z,1.1
2023-01-09T00:47:00.403Z,1.1
2023-01-09T00:48:00.385Z,1.1
2023-01-09T00:49:00.416Z,1.1
2023-01-09T00:50:00.416Z,1.1
2023-01-09T00:51:00.413Z,1.1
2023-01-09T00:52:00.411Z,1.1
2023-01-09T00:53:00.396Z,1.1
2023-01-09T00:54:00.395Z,1.1
2023-01-09T00:55:00.414Z,1.1
2023-01-09T00:56:00.425Z,1.1
2023-01-09T00:57:00.403Z,1.1
2023-01-09T00:58:00.422Z,1.1
2023-01-09T00:59:00.411Z,1.1
2023-01-09T01:00:00.422Z,1.1
2023-01-09T01:01:00.589Z,1.1
2023-01-09T01:02:00.604Z,1.1
2023-01-09T01:03:00.470Z,1.1
2023-01-09T01:04:00.432Z,1.1
2023-01-09T01:05:00.430Z,1.1
2023-01-09T01:06:00.435Z,1.1
2023-01-09T01:07:00.410Z,1.1
2023-01-09T01:08:00.434Z,1.1
2023-01-09T01:09:00.408Z,1.1
2023-01-09T01:10:00.420Z,1.1
2023-01-09T01:11:00.413Z,1.1
2023-01-09T01:12:00.418Z,1.1
2023-01-09T01:13:00.439Z,1.1
2023-01-09T01:14:00.443Z,1.1
2023-01-09T01:15:00.416Z,1.1
2023-01-09T01:16:00.429Z,1.1
2023-01-09T01:17:00.492Z,1.1
2023-01-09T01:18:00.443Z,1.1
2023-01-09T01:19:00.438Z,1.1
2023-01-09T01:20:00.441Z,1.1
2023-01-09T01:21:00.459Z,1.1
2023-01-09T01:22:00.438Z,1.1
2023-01-09T01:23:00.462Z,1.1
2023-01-09T01:24:00.458Z,1.1
2023-01-09T01:25:00.426Z,1.1
2023-01-09T01:26:00.432Z,1.1
2023-01-09T01:27:00.451Z,1.1
2023-01-09T01:28:00.459Z,1.1
2023-01-09T01:29:00.462Z,1.1
2023-01-09T01:30:00.455Z,1.1
2023-01-09T01:31:00.539Z,1.1
2023-01-09T01:32:00.442Z,1.1
2023-01-09T01:33:00.459Z,1.1
2023-01-09T01:34:00.449Z,1.1
2023-01-09T01:35:00.453Z,1.1
2023-01-09T01:36:00.461Z,1.1
2023-01-09T01:37:00.465Z,1.1
2023-01-09T01:38:00.461Z,1.1
2023-01-09T01:39:00.449Z,1.1
2023-01-09T01:40:00.443Z,1.1
2023-01-09T01:41:00.462Z,1.1
2023-01-09T01:42:00.453Z,1.1
2023-01-09T01:43:00.476Z,1.1
2023-01-09T01:44:00.473Z,1.1
2023-01-09T01:45:00.481Z,1.1
2023-01-09T01:46:00.515Z,1.1
2023-01-09T01:47:00.457Z,1.1
2023-01-09T01:48:00.473Z,1.1
2023-01-09T01:49:00.452Z,1.1
2023-01-09T01:50:00.456Z,1.1
2023-01-09T01:51:00.476Z,1.1
2023-01-09T01:52:00.451Z,1.1
2023-01-09T01:53:00.473Z,1.1
2023-01-09T01:54:00.487Z,1.1
2023-01-09T01:55:00.454Z,1.1
2023-01-09T01:56:00.487Z,1.1
2023-01-09T01:57:00.465Z,1.1
2023-01-09T01:58:00.486Z,1.1
2023-01-09T01:59:00.468Z,1.1
2023-01-09T02:00:00.463Z,1.1
2023-01-09T02:01:00.704Z,1.1
2023-01-09T02:02:00.676Z,1.1
2023-01-09T02:03:00.503Z,1.1
2023-01-09T02:04:00.483Z,1.1
2023-01-09T02:05:00.477Z,1.1
2023-01-09T02:06:00.500Z,1.1
2023-01-09T02:07:00.492Z,1.1
2023-01-09T02:08:00.529Z,1.1
2023-01-09T02:09:00.494Z,1.1
2023-01-09T02:10:00.477Z,1.1
2023-01-09T02:11:00.484Z,1.1
2023-01-09T02:12:00.479Z,1.1
2023-01-09T02:13:00.512Z,1.1
2023-01-09T02:14:00.503Z,1.1
2023-01-09T02:15:00.480Z,1.1
2023-01-09T02:16:00.536Z,1.1
2023-01-09T02:17:00.483Z,1.1
2023-01-09T02:18:00.502Z,1.1
2023-01-09T02:19:00.505Z,1.1
2023-01-09T02:20:00.514Z,1.1
2023-01-09T02:21:00.516Z,1.1
2023-01-09T02:22:00.502Z,1.1
2023-01-09T02:23:00.530Z,1.1
2023-01-09T02:24:00.528Z,1.1
2023-01-09T02:25:00.525Z,1.1
2023-01-09T02:26:00.494Z,1.1
2023-01-09T02:27:00.859Z,1.1
2023-01-09T02:28:00.498Z,1.1
2023-01-09T02:29:00.516Z,1.1
2023-01-09T02:30:00.513Z,1.1
2023-01-09T02:31:00.507Z,1.1
2023-01-09T02:32:00.518Z,1.1
2023-01-09T02:33:00.520Z,1.1
2023-01-09T02:34:00.543Z,1.1
2023-01-09T02:35:00.520Z,1.1
2023-01-09T02:36:00.530Z,1.1
2023-01-09T02:37:00.504Z,1.1
2023-01-09T02:38:00.513Z,1.1
2023-01-09T02:39:00.526Z,1.1
2023-01-09T02:40:00.517Z,1.1
2023-01-09T02:41:00.507Z,1.1
2023-01-09T02:42:00.511Z,1.1
2023-01-09T02:43:00.514Z,1.1
2023-01-09T02:44:00.523Z,1.1
2023-01-09T02:45:00.524Z,1.1
2023-01-09T02:46:00.627Z,1.1
2023-01-09T02:47:00.514Z,1.1
2023-01-09T02:48:00.515Z,1.1
2023-01-09T02:49:00.539Z,1.1
2023-01-09T02:50:00.543Z,1.1
2023-01-09T02:51:00.552Z,1.1
2023-01-09T02:52:00.518Z,1.1
2023-01-09T02:53:00.463Z,1.1
2023-01-09T02:54:00.460Z,1.1
2023-01-09T02:55:00.545Z,1.1
2023-01-09T02:56:00.401Z,1.1
2023-01-09T02:57:00.343Z,1.1
2023-01-09T02:58:00.314Z,1.1
2023-01-09T02:59:00.285Z,1.1
2023-01-09T03:00:00.294Z,1.1
2023-01-09T03:01:02.245Z,1.1
2023-01-09T03:02:02.146Z,1.1
2023-01-09T03:03:02.136Z,1.1
2023-01-09T03:04:02.077Z,1.1
2023-01-09T03:05:02.163Z,1.1
2023-01-09T03:06:02.185Z,1.1
2023-01-09T03:07:02.109Z,1.1
2023-01-09T03:08:02.127Z,1.1
2023-01-09T03:09:02.098Z,1.1
2023-01-09T03:10:02.146Z,1.1
2023-01-09T03:11:02.138Z,1.1
2023-01-09T03:12:02.123Z,1.1
2023-01-09T03:13:02.173Z,1.1
2023-01-09T03:14:02.210Z,1.1
2023-01-09T03:15:02.269Z,1.1
2023-01-09T03:16:02.267Z,1.1
2023-01-09T03:17:02.205Z,1.1
2023-01-09T03:18:03.042Z,1.1
2023-01-09T03:19:02.255Z,1.1
2023-01-09T03:20:02.164Z,1.1
2023-01-09T03:21:02.254Z,1.1
2023-01-09T03:22:02.233Z,1.1
2023-01-09T03:23:02.194Z,1.1
2023-01-09T03:24:02.296Z,1.1
2023-01-09T03:25:02.263Z,1.1
2023-01-09T03:26:02.174Z,1.1
2023-01-09T03:27:02.194Z,1.1
2023-01-09T03:28:02.199Z,1.1
2023-01-09T03:29:02.121Z,1.1
2023-01-09T03:30:02.289Z,1.1
2023-01-09T03:31:02.167Z,1.1
2023-01-09T03:32:02.198Z,1.1
2023-01-09T03:33:02.132Z,1.1
2023-01-09T03:34:02.177Z,1.1
2023-01-09T03:35:02.163Z,1.1
2023-01-09T03:36:02.103Z,1.1
2023-01-09T03:37:02.184Z,1.1
2023-01-09T03:38:02.106Z,1.1
2023-01-09T03:39:02.098Z,1.1
2023-01-09T03:40:02.134Z,1.1
2023-01-09T03:41:02.114Z,1.1
2023-01-09T03:42:02.177Z,1.1
2023-01-09T03:43:02.109Z,1.1
2023-01-09T03:44:02.097Z,1.1
2023-01-09T03:45:02.128Z,1.1
2023-01-09T03:46:02.187Z,1.1
2023-01-09T03:47:02.094Z,1.1
2023-01-09T03:48:02.122Z,1.1
2023-01-09T03:49:02.126Z,1.1
2023-01-09T03:50:02.115Z,1.1
2023-01-09T03:51:02.104Z,1.1
2023-01-09T03:52:02.131Z,1.1
2023-01-09T03:53:02.110Z,1.1
2023-01-09T03:54:02.107Z,1.1
2023-01-09T03:55:02.121Z,1.1
2023-01-09T03:56:02.124Z,1.1
2023-01-09T03:57:02.105Z,1.1
2023-01-09T03:58:02.132Z,1.1
2023-01-09T03:59:02.125Z,1.1
2023-01-09T04:00:02.173Z,1.1
2023-01-09T04:01:02.239Z,1.1
2023-01-09T04:02:03.922Z,1.1
2023-01-09T04:05:02.460Z,1.1
2023-01-09T04:06:02.432Z,1.1
2023-01-09T04:07:02.413Z,1.1
2023-01-09T04:08:02.416Z,1.1
2023-01-09T04:09:02.420Z,1.1
2023-01-09T04:10:02.472Z,1.1
2023-01-09T04:11:02.447Z,1.1
2023-01-09T04:12:02.426Z,1.1
2023-01-09T04:13:02.426Z,1.1
2023-01-09T04:14:02.435Z,1.1
2023-01-09T04:15:02.450Z,1.1
2023-01-09T04:16:02.522Z,1.1
2023-01-09T04:17:02.428Z,1.1
2023-01-09T04:18:02.421Z,1.1
2023-01-09T04:19:02.421Z,1.1
2023-01-09T04:20:02.470Z,1.1
2023-01-09T04:21:02.446Z,1.1
2023-01-09T04:22:02.456Z,1.1
2023-01-09T04:23:02.426Z,1.1
2023-01-09T04:24:02.426Z,1.1
2023-01-09T04:25:02.462Z,1.1
2023-01-09T04:26:02.452Z,1.1
2023-01-09T04:27:02.444Z,1.1
2023-01-09T04:28:02.454Z,1.1
2023-01-09T04:29:02.452Z,1.1
2023-01-09T04:30:02.470Z,1.1
2023-01-09T04:31:02.450Z,1.1
2023-01-09T04:32:02.461Z,1.1
2023-01-09T04:33:02.453Z,1.1
2023-01-09T04:34:02.450Z,1.1
2023-01-09T04:35:02.464Z,1.1
2023-01-09T04:36:02.463Z,1.1
2023-01-09T04:37:02.477Z,1.1
2023-01-09T04:38:02.453Z,1.1
2023-01-09T04:39:02.461Z,1.1
2023-01-09T04:40:02.479Z,1.1
2023-01-09T04:41:02.476Z,1.1
2023-01-09T04:42:02.476Z,1.1
2023-01-09T04:43:02.487Z,1.1
2023-01-09T04:44:02.458Z,1.1
2023-01-09T04:45:02.483Z,1.1
2023-01-09T04:46:02.514Z,1.1
2023-01-09T04:47:02.472Z,1.1
2023-01-09T04:48:02.466Z,1.1
2023-01-09T04:49:02.489Z,1.1
2023-01-09T04:50:02.511Z,1.1
2023-01-09T04:51:02.485Z,1.1
2023-01-09T04:52:02.481Z,1.1
2023-01-09T04:53:02.499Z,1.1
2023-01-09T04:54:02.474Z,1.1
2023-01-09T04:55:02.492Z,1.1
2023-01-09T04:56:02.510Z,1.1
2023-01-09T04:57:02.482Z,1.1
2023-01-09T04:58:02.496Z,1.1
2023-01-09T04:59:02.483Z,1.1
2023-01-09T05:00:02.488Z,1.1
2023-01-09T05:01:02.585Z,1.1
2023-01-09T05:02:02.640Z,1.1
2023-01-09T05:03:02.497Z,1.1
2023-01-09T05:04:02.509Z,1.1
2023-01-09T05:05:02.471Z,1.1
2023-01-09T05:06:02.475Z,1.1
2023-01-09T05:07:02.485Z,1.1
2023-01-09T05:08:02.503Z,1.1
2023-01-09T05:09:02.498Z,1.1
2023-01-09T05:10:02.507Z,1.1
2023-01-09T05:11:02.529Z,1.1
2023-01-09T05:12:02.479Z,1.1
2023-01-09T05:13:02.494Z,1.1
2023-01-09T05:14:02.494Z,1.1
2023-01-09T05:15:02.506Z,1.1
2023-01-09T05:16:02.507Z,1.1
2023-01-09T05:17:02.494Z,1.1
2023-01-09T05:18:02.520Z,1.1
2023-01-09T05:19:02.487Z,1.1
2023-01-09T05:20:02.487Z,1.1
2023-01-09T05:21:02.509Z,1.1
2023-01-09T05:22:02.487Z,1.1
2023-01-09T05:23:02.523Z,1.1
2023-01-09T05:24:02.528Z,1.1
2023-01-09T05:25:02.505Z,1.1
2023-01-09T05:26:02.520Z,1.1
2023-01-09T05:27:02.508Z,1.1
2023-01-09T05:28:02.525Z,1.1
2023-01-09T05:29:02.494Z,1.1
2023-01-09T05:30:02.511Z,1.1
2023-01-09T05:31:02.517Z,1.1
2023-01-09T05:32:02.523Z,1.1
2023-01-09T05:33:02.529Z,1.1
2023-01-09T05:34:02.504Z,1.1
2023-01-09T05:35:02.504Z,1.1
2023-01-09T05:36:02.538Z,1.1
2023-01-09T05:37:02.515Z,1.1
2023-01-09T05:38:02.540Z,1.1
2023-01-09T05:39:02.511Z,1.1
2023-01-09T05:40:02.524Z,1.1
2023-01-09T05:41:02.528Z,1.1
2023-01-09T05:42:02.525Z,1.1
2023-01-09T05:43:02.539Z,1.1
2023-01-09T05:44:02.544Z,1.1
2023-01-09T05:45:02.518Z,1.1
2023-01-09T05:46:02.547Z,1.1
2023-01-09T05:47:02.995Z,1.1
2023-01-09T05:48:02.536Z,1.1
2023-01-09T05:49:02.516Z,1.1
2023-01-09T05:50:02.531Z,1.1
2023-01-09T05:51:02.536Z,1.1
2023-01-09T05:52:02.529Z,1.1
2023-01-09T05:53:02.539Z,1.1
2023-01-09T05:54:02.527Z,1.1
2023-01-09T05:55:02.526Z,1.1
2023-01-09T05:56:02.546Z,1.1
2023-01-09T05:57:02.533Z,1.1
2023-01-09T05:58:02.555Z,1.1
2023-01-09T05:59:02.525Z,1.1
2023-01-09T06:00:02.581Z,1.1
2023-01-09T06:01:02.578Z,1.1
2023-01-09T06:02:02.534Z,1.1
2023-01-09T06:03:02.596Z,1.1
2023-01-09T06:04:02.545Z,1.1
2023-01-09T06:05:02.586Z,1.1
2023-01-09T06:06:02.555Z,1.1
2023-01-09T06:07:02.556Z,1.1
2023-01-09T06:08:02.556Z,1.1
2023-01-09T06:09:02.536Z,1.1
2023-01-09T06:10:02.559Z,1.1
2023-01-09T06:11:02.539Z,1.1
2023-01-09T06:12:02.539Z,1.1
2023-01-09T06:13:02.575Z,1.1
2023-01-09T06:14:02.599Z,1.1
2023-01-09T06:15:02.550Z,1.1
2023-01-09T06:16:02.664Z,1.1
2023-01-09T06:17:02.575Z,1.1
2023-01-09T06:18:02.573Z,1.1
2023-01-09T06:19:02.555Z,1.1
2023-01-09T06:20:02.577Z,1.1
2023-01-09T06:21:02.571Z,1.1
2023-01-09T06:22:02.567Z,1.1
2023-01-09T06:23:02.561Z,1.1
2023-01-09T06:24:02.575Z,1.1
2023-01-09T06:25:02.569Z,1.1
2023-01-09T06:26:02.580Z,1.1
2023-01-09T06:27:02.559Z,1.1
2023-01-09T06:28:02.564Z,1.1
2023-01-09T06:29:02.560Z,1.1
2023-01-09T06:30:02.651Z,1.1
2023-01-09T06:31:02.662Z,1.1
2023-01-09T06:32:02.569Z,1.1
2023-01-09T06:33:02.612Z,1.1
2023-01-09T06:34:02.564Z,1.1
2023-01-09T06:35:02.586Z,1.1
2023-01-09T06:36:02.591Z,1.1
2023-01-09T06:37:02.563Z,1.1
2023-01-09T06:38:02.571Z,1.1
2023-01-09T06:39:02.570Z,1.1
2023-01-09T06:40:02.568Z,1.1
2023-01-09T06:41:02.584Z,1.1
2023-01-09T06:42:02.580Z,1.1
2023-01-09T06:43:02.571Z,1.1
2023-01-09T06:44:02.586Z,1.1
2023-01-09T06:45:02.594Z,1.3
2023-01-09T06:46:02.641Z,1.6
2023-01-09T06:47:02.576Z,1.9
2023-01-09T06:48:02.600Z,2.3
2023-01-09T06:49:02.575Z,2.8
2023-01-09T06:50:02.596Z,3.4
2023-01-09T06:51:02.603Z,4
2023-01-09T06:52:02.580Z,4.8
2023-01-09T06:53:02.584Z,5.9
2023-01-09T06:54:02.598Z,7
2023-01-09T06:55:02.600Z,8.3
2023-01-09T06:56:02.605Z,9.8
2023-01-09T06:57:02.603Z,11.6
2023-01-09T06:58:02.588Z,13.6
2023-01-09T06:59:02.771Z,15.8
2023-01-09T07:00:02.609Z,18.5
2023-01-09T07:01:02.826Z,21.1
2023-01-09T07:02:02.625Z,24.1
2023-01-09T07:03:02.634Z,27.5
2023-01-09T07:04:02.669Z,30.9
2023-01-09T07:05:02.611Z,34.9
2023-01-09T07:06:02.790Z,38.4
2023-01-09T07:07:02.604Z,42.7
2023-01-09T07:08:02.663Z,48.7
2023-01-09T07:09:02.724Z,54.3
2023-01-09T07:10:02.736Z,55.6
2023-01-09T07:11:02.707Z,59.7
2023-01-09T07:12:02.625Z,70.6
2023-01-09T07:13:02.710Z,83.5
2023-01-09T07:14:02.711Z,91.9
2023-01-09T07:15:02.757Z,99.9
2023-01-09T07:16:02.749Z,106
2023-01-09T07:17:02.718Z,113.9
2023-01-09T07:18:02.720Z,122.4
2023-01-09T07:19:02.698Z,130
2023-01-09T07:20:02.698Z,136.3
2023-01-09T07:21:02.733Z,138
2023-01-09T07:22:02.790Z,141.3
2023-01-09T07:23:02.731Z,141.3
2023-01-09T07:24:02.770Z,146.5
2023-01-09T07:25:02.764Z,153.6
2023-01-09T07:26:03.606Z,153.6
2023-01-09T07:27:02.800Z,159.3
2023-01-09T07:28:02.785Z,167.1
2023-01-09T07:29:02.800Z,173.2
2023-01-09T07:30:02.724Z,177.3
2023-01-09T07:31:02.829Z,169.1
2023-01-09T07:32:02.679Z,159.3
2023-01-09T07:33:04.107Z,173.2
2023-01-09T07:34:02.744Z,171.1
2023-01-09T07:35:02.719Z,195.2
2023-01-09T07:36:02.660Z,197.5
2023-01-09T07:37:02.687Z,212.2
2023-01-09T07:38:02.633Z,204.7
2023-01-09T07:39:02.672Z,222.6
2023-01-09T07:40:02.715Z,233.5
2023-01-09T07:41:02.632Z,236.3
2023-01-09T07:42:02.701Z,276.1
2023-01-09T07:43:02.639Z,282.7
2023-01-09T07:44:02.651Z,296.6
2023-01-09T07:45:02.695Z,300.2
2023-01-09T07:46:02.711Z,303.8
2023-01-09T07:47:02.635Z,307.4
2023-01-09T07:48:02.789Z,311.1
2023-01-09T07:49:02.647Z,318.7
2023-01-09T07:50:02.683Z,318.7
2023-01-09T07:51:02.638Z,326.4
2023-01-09T07:52:02.652Z,350.6
2023-01-09T07:53:02.645Z,367.8
2023-01-09T07:54:02.639Z,376.7
2023-01-09T07:55:02.687Z,385.9
2023-01-09T07:56:02.661Z,395.2
2023-01-09T07:57:02.648Z,395.2
2023-01-09T07:58:02.642Z,404.8
2023-01-09T07:59:02.666Z,414.5
2023-01-09T08:00:02.699Z,419.6
2023-01-09T08:01:02.729Z,429.7
2023-01-09T08:02:02.729Z,434.9
2023-01-09T08:03:02.784Z,440.1
2023-01-09T08:04:02.650Z,445.4
2023-01-09T08:05:02.693Z,445.4
2023-01-09T08:06:02.651Z,445.4
2023-01-09T08:07:02.655Z,445.4
2023-01-09T08:08:02.683Z,456.2
2023-01-09T08:09:02.659Z,467.2
2023-01-09T08:10:02.683Z,478.5
2023-01-09T08:11:02.662Z,490.1
2023-01-09T08:12:02.671Z,490.1
2023-01-09T08:13:02.656Z,502
2023-01-09T08:14:02.677Z,508
2023-01-09T08:15:02.685Z,514.1
2023-01-09T08:16:02.714Z,526.6
2023-01-09T08:17:02.657Z,532.9
2023-01-09T08:18:02.683Z,552.4
2023-01-09T08:19:02.696Z,559
2023-01-09T08:20:02.693Z,579.4
2023-01-09T08:21:02.672Z,593.4
2023-01-09T08:22:02.678Z,593.4
2023-01-09T08:23:02.676Z,607.8
2023-01-09T08:24:02.697Z,607.8
2023-01-09T08:25:02.706Z,593.4
2023-01-09T08:26:02.701Z,622.5
2023-01-09T08:27:02.693Z,615.1
2023-01-09T08:28:02.712Z,622.5
2023-01-09T08:29:02.679Z,622.5
2023-01-09T08:30:02.703Z,622.5
2023-01-09T08:31:02.838Z,622.5
2023-01-09T08:32:02.686Z,637.6
2023-01-09T08:33:02.676Z,637.6
2023-01-09T08:34:02.689Z,622.5
2023-01-09T08:35:02.781Z,622.5
2023-01-09T08:36:02.736Z,593.4
2023-01-09T08:37:02.694Z,572.5
2023-01-09T08:38:02.687Z,586.4
2023-01-09T08:39:02.708Z,508
2023-01-09T08:40:02.735Z,424.6
2023-01-09T08:41:02.689Z,385.9
2023-01-09T08:42:02.698Z,334.3
2023-01-09T08:43:02.712Z,330.3
2023-01-09T08:44:02.687Z,363.5
2023-01-09T08:45:02.723Z,363.5
2023-01-09T08:46:02.753Z,330.3
2023-01-09T08:47:02.692Z,289.6
2023-01-09T08:48:02.705Z,266.3
2023-01-09T08:49:02.699Z,263.2
2023-01-09T08:50:02.719Z,286.1
2023-01-09T08:51:02.697Z,279.4
2023-01-09T08:52:02.716Z,307.4
2023-01-09T08:53:00.556Z,342.4
2023-01-09T08:54:00.537Z,322.5
2023-01-09T08:55:00.519Z,286.1
2023-01-09T08:56:00.539Z,334.3
2023-01-09T08:57:00.512Z,359.1
2023-01-09T08:58:00.533Z,314.9
2023-01-09T08:59:00.514Z,342.4
2023-01-09T09:00:00.519Z,419.6
2023-01-09T09:01:00.551Z,579.4
2023-01-09T09:02:00.585Z,572.5
2023-01-09T09:03:00.611Z,496
2023-01-09T09:04:00.538Z,424.6
2023-01-09T09:05:00.528Z,440.1
2023-01-09T09:06:00.556Z,450.8
2023-01-09T09:07:00.603Z,467.2
2023-01-09T09:08:00.550Z,490.1
2023-01-09T09:09:00.555Z,539.3
2023-01-09T09:10:00.550Z,565.7
2023-01-09T09:11:00.549Z,478.5
2023-01-09T09:12:00.528Z,404.8
2023-01-09T09:13:00.578Z,456.2
2023-01-09T09:14:00.552Z,456.2
2023-01-09T09:15:00.539Z,478.5
2023-01-09T09:16:00.645Z,456.2
2023-01-09T09:17:00.572Z,484.3
2023-01-09T09:18:00.581Z,579.4
2023-01-09T09:19:00.561Z,668.8
2023-01-09T09:20:00.563Z,772.1
2023-01-09T09:21:00.561Z,718.6
2023-01-09T09:22:00.546Z,572.5
2023-01-09T09:23:00.549Z,630
2023-01-09T09:24:00.557Z,718.6
2023-01-09T09:25:00.567Z,891.2
2023-01-09T09:26:00.586Z,1053.6
2023-01-09T09:27:00.546Z,1066.3
2023-01-09T09:28:00.548Z,1105.3
2023-01-09T09:29:00.571Z,1132
2023-01-09T09:30:00.587Z,1245.7
2023-01-09T09:31:00.618Z,1230.8
2023-01-09T09:32:01.035Z,1620.5
2023-01-09T09:33:00.575Z,1679.7
2023-01-09T09:34:00.575Z,1472.7
2023-01-09T09:35:00.572Z,1370.7
2023-01-09T09:36:00.578Z,1275.8
2023-01-09T09:37:00.596Z,1275.8
2023-01-09T09:38:02.551Z,1472.7
2023-01-09T09:39:00.575Z,1403.9
2023-01-09T09:40:09.833Z,1437.9
2023-01-09T09:41:00.566Z,1544.8
2023-01-09T09:42:00.578Z,1544.8
2023-01-09T09:43:00.567Z,1508.3
2023-01-09T09:44:00.586Z,1526.4
2023-01-09T09:45:00.596Z,1472.7
2023-01-09T09:46:00.584Z,1679.7
2023-01-09T09:47:00.589Z,1659.7
2023-01-09T09:48:00.580Z,1640
2023-01-09T09:49:00.587Z,1679.7
2023-01-09T09:50:00.585Z,1455.2
2023-01-09T09:51:00.591Z,1620.5
2023-01-09T09:52:00.589Z,1848.4
2023-01-09T09:53:00.582Z,1582.3
2023-01-09T09:54:00.601Z,1563.4
2023-01-09T09:55:00.578Z,1762
2023-01-09T09:56:00.588Z,1826.4
2023-01-09T09:57:00.607Z,1848.4
2023-01-09T09:58:00.583Z,1870.6
2023-01-09T09:59:00.621Z,1659.7
2023-01-09T10:00:00.591Z,1437.9
2023-01-09T10:01:00.597Z,1699.9
2023-01-09T10:02:00.667Z,1620.5
2023-01-09T10:03:00.626Z,1783.3
2023-01-09T10:04:00.725Z,1601.3
2023-01-09T10:05:00.587Z,1508.3
2023-01-09T10:06:00.609Z,1354.4
2023-01-09T10:07:00.591Z,1159.4
2023-01-09T10:08:11.594Z,1105.3
2023-01-09T10:09:00.613Z,1187.5
2023-01-09T10:10:00.603Z,1230.8
2023-01-09T10:11:00.605Z,1370.7
2023-01-09T10:12:00.615Z,1403.9
2023-01-09T10:13:00.605Z,1159.4
2023-01-09T10:14:00.635Z,1508.3
2023-01-09T10:15:00.606Z,1699.9
2023-01-09T10:16:00.673Z,1659.7
2023-01-09T10:17:00.612Z,1699.9
2023-01-09T10:18:00.602Z,1762
2023-01-09T10:19:00.623Z,1741
2023-01-09T10:20:00.621Z,1582.3
2023-01-09T10:21:00.628Z,1679.7
2023-01-09T10:22:00.644Z,1582.3
2023-01-09T10:23:00.640Z,1720.4
2023-01-09T10:24:00.621Z,2319.9
2023-01-09T10:25:00.651Z,2842.8
2023-01-09T10:26:00.665Z,2911.7
2023-01-09T10:27:00.619Z,2492.4
2023-01-09T10:28:00.612Z,2319.9
2023-01-09T10:29:00.642Z,2265.1
2023-01-09T10:30:00.630Z,2159.2
2023-01-09T10:31:00.761Z,1659.7
2023-01-09T10:32:00.639Z,1601.3
2023-01-09T10:33:00.614Z,1490.4
2023-01-09T10:34:00.643Z,1245.7
2023-01-09T10:35:00.627Z,969
2023-01-09T10:36:00.648Z,1041.1
2023-01-09T10:37:00.759Z,1004.4
2023-01-09T10:38:00.621Z,1145.6
2023-01-09T10:39:00.688Z,1079.1
2023-01-09T10:40:00.654Z,957.5
2023-01-09T10:41:01.890Z,870.2
2023-01-09T10:42:00.625Z,923.7
2023-01-09T10:43:00.639Z,1004.4
2023-01-09T10:44:00.644Z,859.8
2023-01-09T10:45:00.650Z,934.9
2023-01-09T10:46:00.629Z,1004.4
2023-01-09T10:47:00.703Z,980.7
2023-01-09T10:48:00.639Z,992.5
2023-01-09T10:49:00.656Z,1028.7
2023-01-09T10:50:00.679Z,1028.7
2023-01-09T10:51:00.646Z,1079.1
2023-01-09T10:52:00.636Z,1066.3
2023-01-09T10:53:00.647Z,957.5
2023-01-09T10:54:00.666Z,849.6
2023-01-09T10:55:00.656Z,870.2
2023-01-09T10:56:00.631Z,923.7
2023-01-09T10:57:00.637Z,1028.7
2023-01-09T10:58:00.638Z,1245.7
2023-01-09T10:59:00.677Z,1437.9
2023-01-09T11:00:00.726Z,1472.7
2023-01-09T11:01:00.636Z,1370.7
2023-01-09T11:02:00.705Z,1472.7
2023-01-09T11:03:00.686Z,1508.3
2023-01-09T11:04:00.687Z,1659.7
2023-01-09T11:05:00.670Z,1893.1
2023-01-09T11:06:00.673Z,1620.5
2023-01-09T11:07:00.661Z,1508.3
2023-01-09T11:08:00.703Z,1322.4
2023-01-09T11:09:00.669Z,1338.3
2023-01-09T11:10:00.751Z,1472.7
2023-01-09T11:11:00.789Z,1338.3
2023-01-09T11:12:00.657Z,1354.4
2023-01-09T11:13:00.740Z,1699.9
2023-01-09T11:14:00.753Z,1870.6
2023-01-09T11:15:00.726Z,1437.9
2023-01-09T11:16:00.817Z,1354.4
2023-01-09T11:17:00.751Z,1508.3
2023-01-09T11:18:00.752Z,1699.9
2023-01-09T11:19:00.762Z,1544.8
2023-01-09T11:20:00.802Z,1420.8
2023-01-09T11:21:00.799Z,1601.3
2023-01-09T11:22:00.735Z,2009.8
2023-01-09T11:23:00.776Z,2614.6
2023-01-09T11:24:00.791Z,2946.7
2023-01-09T11:25:00.821Z,3165.8
2023-01-09T11:26:00.867Z,2877.1
2023-01-09T11:27:00.880Z,3128.2
2023-01-09T11:28:00.872Z,3018
2023-01-09T11:29:00.794Z,3128.2
2023-01-09T11:30:00.761Z,2982.2
2023-01-09T11:31:01.017Z,2842.8
2023-01-09T11:32:00.787Z,2842.8
2023-01-09T11:33:00.866Z,3242.6
2023-01-09T11:34:00.774Z,2946.7
2023-01-09T11:35:00.752Z,2433.5
2023-01-09T11:36:00.822Z,2265.1
2023-01-09T11:37:00.837Z,3165.8
2023-01-09T11:38:00.829Z,3204.1
2023-01-09T11:39:00.772Z,2742.6
2023-01-09T11:40:00.824Z,2583.5
2023-01-09T11:41:00.838Z,2552.8
2023-01-09T11:42:00.804Z,3018
2023-01-09T11:43:00.770Z,2809
2023-01-09T11:44:00.721Z,2710.1
2023-01-09T11:45:00.808Z,2083.2
2023-01-09T11:46:02.119Z,2159.2
2023-01-09T11:47:00.794Z,2646
2023-01-09T11:48:00.736Z,2646
2023-01-09T11:49:00.696Z,2265.1
2023-01-09T11:50:00.751Z,2185.2
2023-01-09T11:51:00.703Z,2462.8
2023-01-09T11:52:00.708Z,2946.7
2023-01-09T11:53:00.687Z,2710.1
2023-01-09T11:54:00.701Z,2433.5
2023-01-09T11:55:00.743Z,2211.5
2023-01-09T11:56:00.694Z,2133.6
2023-01-09T11:57:00.711Z,2009.8
2023-01-09T11:58:00.703Z,2009.8
2023-01-09T11:59:00.694Z,1826.4
2023-01-09T12:00:00.747Z,1699.9
2023-01-09T12:01:00.699Z,1938.9
2023-01-09T12:02:00.806Z,1915.9
2023-01-09T12:03:00.725Z,2211.5
2023-01-09T12:04:00.701Z,2319.9
2023-01-09T12:05:00.722Z,2009.8
2023-01-09T12:06:00.705Z,1826.4
2023-01-09T12:07:00.742Z,1620.5
2023-01-09T12:08:00.709Z,1216.2
2023-01-09T12:09:00.721Z,1145.6
2023-01-09T12:10:00.747Z,1187.5
2023-01-09T12:11:00.736Z,1291.2
2023-01-09T12:12:00.729Z,1601.3
2023-01-09T12:13:00.718Z,1762
2023-01-09T12:14:00.751Z,2108.2
2023-01-09T12:15:00.766Z,1826.4
2023-01-09T12:16:00.781Z,1783.3
2023-01-09T12:17:00.733Z,2034
2023-01-09T12:18:00.760Z,1870.6
2023-01-09T12:19:00.759Z,1783.3
2023-01-09T12:20:00.762Z,1659.7
2023-01-09T12:21:00.722Z,1699.9
2023-01-09T12:22:00.740Z,1601.3
2023-01-09T12:23:00.719Z,1544.8
2023-01-09T12:24:00.748Z,1437.9
2023-01-09T12:25:00.767Z,1437.9
2023-01-09T12:26:00.728Z,1472.7
2023-01-09T12:27:00.744Z,1601.3
2023-01-09T12:28:00.743Z,1720.4
2023-01-09T12:29:00.755Z,1620.5
2023-01-09T12:30:00.768Z,1848.4
2023-01-09T12:31:00.746Z,1962.2
2023-01-09T12:32:00.814Z,1804.7
2023-01-09T12:33:00.751Z,1783.3
2023-01-09T12:34:00.753Z,1848.4
2023-01-09T12:35:00.766Z,1893.1
2023-01-09T12:36:00.734Z,2009.8
2023-01-09T12:37:00.787Z,2058.4
2023-01-09T12:38:00.736Z,2058.4
2023-01-09T12:39:00.759Z,1826.4
2023-01-09T12:40:00.793Z,1544.8
2023-01-09T12:41:00.738Z,1387.2
2023-01-09T12:42:00.757Z,1173.3
2023-01-09T12:43:00.751Z,1041.1
2023-01-09T12:44:00.778Z,1159.4
2023-01-09T12:45:00.763Z,1230.8
2023-01-09T12:46:00.784Z,1563.4
2023-01-09T12:47:00.767Z,2292.3
2023-01-09T12:48:00.767Z,3281.6
2023-01-09T12:49:00.761Z,3698.5
2023-01-09T12:50:00.790Z,3568
2023-01-09T12:51:00.774Z,3788
2023-01-09T12:52:00.767Z,3568
2023-01-09T12:53:00.768Z,3654.5
2023-01-09T12:54:00.766Z,4269.1
2023-01-09T12:55:00.780Z,4372.4
2023-01-09T12:56:00.767Z,4021.3
2023-01-09T12:57:00.786Z,4021.3
2023-01-09T12:58:00.766Z,3091.1
2023-01-09T12:59:00.781Z,2211.5
2023-01-09T13:00:00.779Z,1938.9
2023-01-09T13:01:00.847Z,1826.4
2023-01-09T13:02:00.866Z,1893.1
2023-01-09T13:03:12.032Z,1544.8
2023-01-09T13:04:00.787Z,1437.9
2023-01-09T13:05:00.771Z,1354.4
2023-01-09T13:06:00.797Z,1893.1
2023-01-09T13:07:00.793Z,1741
2023-01-09T13:08:00.784Z,1544.8
2023-01-09T13:09:00.784Z,1870.6
2023-01-09T13:10:00.813Z,1962.2
2023-01-09T13:11:08.590Z,1699.9
2023-01-09T13:12:00.780Z,1870.6
2023-01-09T13:13:00.795Z,3401.4
2023-01-09T13:14:00.789Z,3611.1
2023-01-09T13:15:00.783Z,2809
2023-01-09T13:16:00.911Z,2211.5